createdAt,value
2023-04-10T00:00:04.158Z,98661.31
2023-04-10T00:02:51.329Z,98614.31
2023-04-10T00:05:36.871Z,98478.91
2023-04-10T00:08:24.206Z,98665.78
2023-04-10T00:11:09.627Z,98652.16
2023-04-10T00:13:55.119Z,98662.09
2023-04-10T00:16:41.139Z,98650.66
2023-04-10T00:19:26.910Z,98616.59
2023-04-10T00:22:12.231Z,98655.81
2023-04-10T00:24:57.637Z,98661.72
2023-04-10T00:27:43.151Z,98670.22
2023-04-10T00:30:28.628Z,98598.91
2023-04-10T00:33:14.700Z,98664.09
2023-04-10T00:36:00.223Z,98652.13
2023-04-10T00:38:46.576Z,98639.97
2023-04-10T00:41:31.877Z,98620.47
2023-04-10T00:44:17.687Z,98627.47
2023-04-10T00:47:05.044Z,98631.50
2023-04-10T00:49:50.758Z,98642.94
2023-04-10T00:52:36.504Z,98627.47
2023-04-10T00:55:21.859Z,98651.59
2023-04-10T00:58:08.221Z,98633.72
2023-04-10T01:00:56.329Z,98632.97
2023-04-10T01:03:43.718Z,98592.81
2023-04-10T01:06:48.165Z,98618.22
2023-04-10T01:09:39.957Z,98643.31
2023-04-10T01:13:19.817Z,98639.25
2023-04-10T01:16:16.131Z,98560.78
2023-04-10T01:19:11.384Z,98587.31
2023-04-10T01:21:59.516Z,98636.69
2023-04-10T01:25:27.132Z,98617.13
2023-04-10T01:28:46.416Z,98619.34
2023-04-10T01:31:39.190Z,98644.78
2023-04-10T01:34:32.730Z,98613.25
2023-04-10T01:37:27.793Z,98606.47
2023-04-10T01:40:16.567Z,98600.53
2023-04-10T01:43:06.326Z,98603.50
2023-04-10T01:46:03.989Z,98612.34
2023-04-10T01:48:52.246Z,98600.19
2023-04-10T01:51:37.504Z,98595.41
2023-04-10T01:54:28.069Z,98574.00
2023-04-10T01:57:15.165Z,98417.63
2023-04-10T02:00:27.955Z,98625.00
2023-04-10T02:03:14.006Z,98607.75
2023-04-10T02:06:16.096Z,98602.94
2023-04-10T02:09:18.965Z,98588.38
2023-04-10T02:12:09.335Z,98604.94
2023-04-10T02:14:56.968Z,98568.28
2023-04-10T02:17:42.968Z,98632.38
2023-04-10T02:20:28.809Z,98593.91
2023-04-10T02:23:17.334Z,98592.78
2023-04-10T02:26:09.456Z,98599.97
2023-04-10T02:28:55.254Z,98590.59
2023-04-10T02:31:43.249Z,98589.28
2023-04-10T02:34:29.552Z,98585.06
2023-04-10T02:37:15.068Z,98623.38
2023-04-10T02:40:00.701Z,98597.22
2023-04-10T02:42:52.383Z,98581.34
2023-04-10T02:45:38.405Z,98567.75
2023-04-10T02:48:26.619Z,98613.41
2023-04-10T02:51:18.389Z,98568.50
2023-04-10T02:54:05.247Z,98426.69
2023-04-10T02:56:51.892Z,98399.44
2023-04-10T02:59:37.813Z,98575.47
2023-04-10T03:02:24.810Z,98394.25
2023-04-10T03:05:11.478Z,98573.25
2023-04-10T03:07:56.829Z,98572.53
2023-04-10T03:10:45.522Z,98577.31
2023-04-10T03:13:31.349Z,98559.97
2023-04-10T03:16:18.782Z,98504.19
2023-04-10T03:19:05.381Z,98370.69
2023-04-10T03:21:50.699Z,98575.09
2023-04-10T03:24:38.354Z,98567.91
2023-04-10T03:27:23.713Z,98551.69
2023-04-10T03:30:09.952Z,98553.72
2023-04-10T03:33:00.632Z,98599.38
2023-04-10T03:35:47.525Z,98586.50
2023-04-10T03:38:33.562Z,98573.25
2023-04-10T03:41:18.867Z,98574.72
2023-04-10T03:44:04.646Z,98569.16
2023-04-10T03:46:50.541Z,98597.16
2023-04-10T03:49:36.078Z,98562.53
2023-04-10T03:52:25.973Z,98568.47
2023-04-10T03:55:11.521Z,98572.50
2023-04-10T03:57:56.911Z,98394.97
2023-04-10T04:00:44.023Z,98385.38
2023-04-10T04:03:38.515Z,98560.31
2023-04-10T04:06:43.946Z,98378.34
2023-04-10T04:09:45.009Z,98570.28
2023-04-10T04:12:41.828Z,98538.03
2023-04-10T04:15:40.836Z,98520.53
2023-04-10T04:18:42.925Z,98571.94
2023-04-10T04:21:48.551Z,98570.66
2023-04-10T04:24:43.666Z,98548.00
2023-04-10T04:27:42.889Z,98573.63
2023-04-10T04:30:47.265Z,98569.56
2023-04-10T04:33:46.553Z,98570.66
2023-04-10T04:36:58.118Z,98561.81
2023-04-10T04:40:14.467Z,98574.69
2023-04-10T04:43:19.275Z,98571.41
2023-04-10T04:46:19.369Z,98578.41
2023-04-10T04:49:28.789Z,98579.34
2023-04-10T04:52:46.564Z,98573.63
2023-04-10T04:55:51.332Z,98594.25
2023-04-10T04:58:58.310Z,98589.47
2023-04-10T05:02:11.313Z,98582.47
2023-04-10T05:05:18.085Z,98613.00
2023-04-10T05:08:22.785Z,98618.19
2023-04-10T05:11:32.255Z,98589.81
2023-04-10T05:14:53.739Z,98592.03
2023-04-10T05:18:00.246Z,98589.09
2023-04-10T05:20:59.471Z,98576.03
2023-04-10T05:27:04.227Z,98476.72
2023-04-10T05:30:01.634Z,98432.91
2023-04-10T05:32:56.281Z,98595.72
2023-04-10T05:35:54.984Z,98411.19
2023-04-10T05:38:51.565Z,98602.34
2023-04-10T05:42:04.653Z,98592.03
2023-04-10T05:45:17.164Z,98589.47
2023-04-10T05:48:06.371Z,98571.41
2023-04-10T05:51:25.051Z,98571.78
2023-04-10T05:54:29.150Z,98555.56
2023-04-10T05:57:40.882Z,98593.69
2023-04-10T06:00:39.156Z,98590.03
2023-04-10T06:03:44.510Z,98598.72
2023-04-10T06:06:32.844Z,98614.38
2023-04-10T06:09:18.688Z,98448.06
2023-04-10T06:12:05.026Z,98475.31
2023-04-10T06:14:50.910Z,98602.78
2023-04-10T06:17:46.822Z,98600.94
2023-04-10T06:20:33.231Z,98583.25
2023-04-10T06:23:18.688Z,98613.09
2023-04-10T06:26:05.688Z,98446.63
2023-04-10T06:28:51.994Z,98588.75
2023-04-10T06:31:38.763Z,98624.31
2023-04-10T06:34:24.204Z,98630.75
2023-04-10T06:37:19.435Z,98618.41
2023-04-10T06:40:08.185Z,98599.47
2023-04-10T06:42:53.846Z,98607.56
2023-04-10T06:45:57.775Z,98448.44
2023-04-10T06:48:43.672Z,98623.03
2023-04-10T06:51:30.173Z,98622.66
2023-04-10T06:54:17.212Z,98620.81
2023-04-10T06:57:09.666Z,98618.59
2023-04-10T07:00:06.552Z,98628.34
2023-04-10T07:02:58.830Z,98609.78
2023-04-10T07:05:46.332Z,98650.13
2023-04-10T07:08:32.396Z,98622.66
2023-04-10T07:11:18.268Z,98627.25
2023-04-10T07:14:04.329Z,98462.06
2023-04-10T07:16:49.834Z,98672.22
2023-04-10T07:19:35.675Z,98465.72
2023-04-10T07:22:21.637Z,98640.72
2023-04-10T07:25:08.347Z,98620.28
2023-04-10T07:27:53.933Z,98616.59
2023-04-10T07:30:39.608Z,98611.59
2023-04-10T07:33:25.034Z,98460.06
2023-04-10T07:36:10.716Z,98628.16
2023-04-10T07:38:57.431Z,98635.53
2023-04-10T07:41:43.966Z,98640.50
2023-04-10T07:44:30.576Z,98644.00
2023-04-10T07:47:16.729Z,98618.03
2023-04-10T07:50:02.853Z,98481.97
2023-04-10T07:52:49.109Z,98626.34
2023-04-10T07:55:39.421Z,98638.13
2023-04-10T07:58:24.969Z,98516.00
2023-04-10T08:01:11.265Z,98650.63
2023-04-10T08:03:57.218Z,98639.19
2023-04-10T08:06:43.222Z,98648.75
2023-04-10T08:09:29.751Z,98636.94
2023-04-10T08:12:16.157Z,98633.63
2023-04-10T08:15:02.329Z,98648.47
2023-04-10T08:17:47.950Z,98497.56
2023-04-10T08:20:37.011Z,98491.31
2023-04-10T08:23:27.652Z,98651.19
2023-04-10T08:26:14.194Z,98653.22
2023-04-10T08:29:01.010Z,98654.47
2023-04-10T08:31:46.715Z,98613.44
2023-04-10T08:34:32.284Z,98610.84
2023-04-10T08:37:19.751Z,98646.00
2023-04-10T08:40:06.816Z,98653.34
2023-04-10T08:42:52.548Z,98646.31
2023-04-10T08:45:40.936Z,98660.41
2023-04-10T08:48:44.103Z,98627.56
2023-04-10T08:51:39.543Z,98596.28
2023-04-10T08:54:29.250Z,98637.06
2023-04-10T08:57:20.983Z,98592.19
2023-04-10T09:00:22.145Z,98475.56
2023-04-10T09:03:12.063Z,98648.09
2023-04-10T09:06:02.243Z,98520.06
2023-04-10T09:08:48.954Z,98647.13
2023-04-10T09:12:10.948Z,98641.03
2023-04-10T09:14:57.411Z,98472.56
2023-04-10T09:18:03.341Z,98651.00
2023-04-10T09:20:51.828Z,98571.72
2023-04-10T09:23:37.496Z,98625.31
2023-04-10T09:26:27.890Z,98648.84
2023-04-10T09:29:13.243Z,98491.06
2023-04-10T09:31:59.206Z,98648.13
2023-04-10T09:34:58.775Z,98644.41
2023-04-10T09:37:47.185Z,98596.56
2023-04-10T09:40:32.866Z,98491.00
2023-04-10T09:43:20.996Z,98617.13
2023-04-10T09:46:06.862Z,98645.91
2023-04-10T09:49:00.878Z,98641.59
2023-04-10T09:51:47.606Z,98645.47
2023-04-10T09:54:37.113Z,98516.38
2023-04-10T09:57:24.787Z,98630.38
2023-04-10T10:00:12.755Z,98487.13
2023-04-10T10:03:00.523Z,98618.22
2023-04-10T10:05:49.246Z,98662.59
2023-04-10T10:08:36.896Z,98462.56
2023-04-10T10:11:25.113Z,98632.47
2023-04-10T10:14:18.271Z,98473.06
2023-04-10T10:17:12.425Z,98614.44
2023-04-10T10:20:11.470Z,98635.81
2023-04-10T10:23:04.348Z,98635.09
2023-04-10T10:25:51.302Z,98611.13
2023-04-10T10:28:37.875Z,98616.63
2023-04-10T10:31:26.448Z,98595.09
2023-04-10T10:34:13.564Z,98618.09
2023-04-10T10:37:00.388Z,98615.50
2023-04-10T10:40:04.853Z,98638.22
2023-04-10T10:43:08.673Z,98627.72
2023-04-10T10:46:17.526Z,98455.94
2023-04-10T10:49:03.975Z,98599.84
2023-04-10T10:51:50.963Z,98506.66
2023-04-10T10:54:42.290Z,98591.91
2023-04-10T10:57:47.422Z,98445.56
2023-04-10T11:00:57.275Z,98610.94
2023-04-10T11:03:46.785Z,98609.72
2023-04-10T11:06:51.869Z,98604.53
2023-04-10T11:09:52.433Z,98580.41
2023-04-10T11:13:19.680Z,98600.16
2023-04-10T11:16:07.731Z,98592.56
2023-04-10T11:19:06.436Z,98601.06
2023-04-10T11:22:03.587Z,98603.00
2023-04-10T11:25:00.266Z,98586.28
2023-04-10T11:27:51.760Z,98483.41
2023-04-10T11:30:37.556Z,98590.47
2023-04-10T11:33:23.181Z,98440.09
2023-04-10T11:36:09.288Z,98582.22
2023-04-10T11:38:55.272Z,98597.56
2023-04-10T11:41:44.632Z,98457.38
2023-04-10T11:44:33.048Z,98599.66
2023-04-10T11:47:18.850Z,98426.97
2023-04-10T11:50:06.319Z,98453.59
2023-04-10T11:52:54.001Z,98580.31
2023-04-10T11:55:41.183Z,98567.41
2023-04-10T11:58:32.960Z,98581.78
2023-04-10T12:01:21.340Z,98510.25
2023-04-10T12:04:22.584Z,98570.50
2023-04-10T12:07:08.776Z,98522.72
2023-04-10T12:09:59.882Z,98553.38
2023-04-10T12:12:46.997Z,98560.66
2023-04-10T12:15:34.565Z,98558.25
2023-04-10T12:18:22.496Z,98395.09
2023-04-10T12:21:08.529Z,98552.94
2023-04-10T12:23:54.451Z,98558.66
2023-04-10T12:26:48.623Z,98352.63
2023-04-10T12:29:34.289Z,98531.81
2023-04-10T12:32:20.674Z,98528.63
2023-04-10T12:35:07.734Z,98524.25
2023-04-10T12:38:07.900Z,98526.13
2023-04-10T12:41:03.281Z,98369.63
2023-04-10T12:43:49.719Z,98556.22
2023-04-10T12:46:39.412Z,98541.25
2023-04-10T12:49:26.116Z,98511.81
2023-04-10T12:52:22.946Z,98540.84
2023-04-10T12:55:21.171Z,98549.34
2023-04-10T12:58:22.627Z,98551.22
2023-04-10T13:01:09.826Z,98408.75
2023-04-10T13:03:56.275Z,98531.06
2023-04-10T13:06:46.151Z,98532.88
2023-04-10T13:09:32.591Z,98510.06
2023-04-10T13:12:18.544Z,98530.59
2023-04-10T13:15:05.083Z,98389.09
2023-04-10T13:17:51.499Z,98362.31
2023-04-10T13:20:38.929Z,98489.94
2023-04-10T13:23:24.464Z,98508.69
2023-04-10T13:26:10.783Z,98526.09
2023-04-10T13:29:14.995Z,98508.69
2023-04-10T13:32:12.318Z,98500.38
2023-04-10T13:35:04.314Z,98472.59
2023-04-10T13:37:53.218Z,98497.59
2023-04-10T13:40:39.623Z,98470.31
2023-04-10T13:43:25.149Z,98496.00
2023-04-10T13:46:24.209Z,98483.13
2023-04-10T13:49:10.035Z,98489.19
2023-04-10T13:51:56.742Z,98481.00
2023-04-10T13:54:43.083Z,98490.53
2023-04-10T13:57:32.477Z,98490.78
2023-04-10T14:00:18.210Z,98480.50
2023-04-10T14:03:04.535Z,98483.78
2023-04-10T14:05:50.709Z,98457.69
2023-04-10T14:08:36.460Z,98486.72
2023-04-10T14:11:23.619Z,98312.41
2023-04-10T14:14:09.179Z,98444.22
2023-04-10T14:16:55.282Z,98487.13
2023-04-10T14:19:43.881Z,98367.66
2023-04-10T14:22:30.503Z,98483.44
2023-04-10T14:25:16.660Z,98486.53
2023-04-10T14:28:02.563Z,98316.69
2023-04-10T14:30:50.455Z,98476.59
2023-04-10T14:33:36.789Z,98469.66
2023-04-10T14:36:23.125Z,98481.47
2023-04-10T14:39:39.422Z,98470.72
2023-04-10T14:42:27.812Z,98477.03
2023-04-10T14:45:14.633Z,98463.84
2023-04-10T14:48:01.039Z,98469.25
2023-04-10T14:50:47.266Z,98299.56
2023-04-10T14:53:33.503Z,98460.63
2023-04-10T14:56:22.612Z,98448.53
2023-04-10T14:59:08.498Z,98456.69
2023-04-10T15:01:54.897Z,98456.19
2023-04-10T15:04:40.544Z,98453.16
2023-04-10T15:07:29.264Z,98457.97
2023-04-10T15:10:17.690Z,98457.97
2023-04-10T15:13:04.081Z,98476.25
2023-04-10T15:15:52.020Z,98321.50
2023-04-10T15:18:41.986Z,98451.59
2023-04-10T15:21:39.548Z,98461.56
2023-04-10T15:24:30.716Z,98465.63
2023-04-10T15:27:35.786Z,98458.88
2023-04-10T15:30:34.481Z,98411.69
2023-04-10T15:33:31.593Z,98471.19
2023-04-10T15:36:17.696Z,98466.03
2023-04-10T15:39:18.975Z,98470.84
2023-04-10T15:42:06.136Z,98490.13
2023-04-10T15:44:51.792Z,98488.66
2023-04-10T15:47:37.851Z,98422.75
2023-04-10T15:50:39.753Z,98460.75
2023-04-10T15:53:29.130Z,98464.81
2023-04-10T15:56:16.096Z,98442.78
2023-04-10T15:59:01.895Z,98435.31
2023-04-10T16:01:47.737Z,98473.34
2023-04-10T16:04:33.289Z,98462.56
2023-04-10T16:07:21.038Z,98326.84
2023-04-10T16:10:09.333Z,98452.13
2023-04-10T16:12:56.590Z,98431.44
2023-04-10T16:15:41.944Z,98450.84
2023-04-10T16:18:27.799Z,98420.50
2023-04-10T16:21:16.521Z,98462.66
2023-04-10T16:24:02.171Z,98429.31
2023-04-10T16:26:47.912Z,98472.84
2023-04-10T16:29:34.962Z,98468.28
2023-04-10T16:32:21.304Z,98360.00
2023-04-10T16:35:07.829Z,98440.00
2023-04-10T16:37:53.950Z,98422.28
2023-04-10T16:40:39.291Z,98469.41
2023-04-10T16:43:29.353Z,98472.53
2023-04-10T16:46:17.171Z,98430.59
2023-04-10T16:49:03.030Z,98402.56
2023-04-10T16:51:49.670Z,98445.69
2023-04-10T16:54:37.933Z,98470.41
2023-04-10T16:57:23.768Z,98458.97
2023-04-10T17:00:11.156Z,98420.50
2023-04-10T17:02:59.150Z,98324.00
2023-04-10T17:05:46.752Z,98470.09
2023-04-10T17:08:33.965Z,98458.75
2023-04-10T17:11:19.965Z,98310.28
2023-04-10T17:14:07.303Z,98302.00
2023-04-10T17:16:54.100Z,98472.69
2023-04-10T17:20:30.070Z,98338.00
2023-04-10T17:23:18.510Z,98336.63
2023-04-10T17:26:07.777Z,98467.13
2023-04-10T17:29:08.948Z,98472.69
2023-04-10T17:32:19.008Z,98473.63
2023-04-10T17:35:16.699Z,98467.53
2023-04-10T17:38:30.344Z,98479.69
2023-04-10T17:41:54.990Z,98480.75
2023-04-10T17:44:41.037Z,98458.44
2023-04-10T17:47:27.818Z,98320.50
2023-04-10T17:50:16.289Z,98478.75
2023-04-10T17:53:13.223Z,98480.41
2023-04-10T17:56:21.401Z,98473.25
2023-04-10T17:59:12.737Z,98486.88
2023-04-10T18:02:03.676Z,98488.34
2023-04-10T18:04:50.179Z,98322.56
2023-04-10T18:07:35.815Z,98329.56
2023-04-10T18:10:21.585Z,98488.69
2023-04-10T18:13:07.072Z,98467.41
2023-04-10T18:15:52.475Z,98487.53
2023-04-10T18:18:46.833Z,98494.84
2023-04-10T18:21:37.669Z,98495.97
2023-04-10T18:24:23.006Z,98479.31
2023-04-10T18:27:08.344Z,98512.84
2023-04-10T18:29:53.769Z,98482.59
2023-04-10T18:32:40.431Z,98459.09
2023-04-10T18:35:26.059Z,98476.94
2023-04-10T18:38:11.469Z,98509.53
2023-04-10T18:40:57.591Z,98511.09
2023-04-10T18:43:46.681Z,98512.66
2023-04-10T18:46:36.759Z,98324.25
2023-04-10T18:49:22.363Z,98463.97
2023-04-10T18:52:08.554Z,98491.22
2023-04-10T18:54:54.820Z,98463.09
2023-04-10T18:57:40.243Z,98478.22
2023-04-10T19:00:25.985Z,98491.47
2023-04-10T19:03:12.966Z,98501.78
2023-04-10T19:05:58.959Z,98481.34
2023-04-10T19:08:44.802Z,98497.69
2023-04-10T19:11:30.379Z,98463.84
2023-04-10T19:14:16.837Z,98323.34
2023-04-10T19:17:06.004Z,98501.38
2023-04-10T19:19:53.188Z,98485.94
2023-04-10T19:22:38.841Z,98324.09
2023-04-10T19:25:24.289Z,98500.31
2023-04-10T19:28:12.685Z,98497.34
2023-04-10T19:31:18.653Z,98476.38
2023-04-10T19:34:12.668Z,98474.22
2023-04-10T19:37:12.961Z,98504.75
2023-04-10T19:40:08.743Z,98485.63
2023-04-10T19:42:57.435Z,98338.47
2023-04-10T19:45:44.850Z,98493.72
2023-04-10T19:48:40.573Z,98517.66
2023-04-10T19:51:30.274Z,98517.63
2023-04-10T19:54:32.480Z,98511.53
2023-04-10T19:57:18.296Z,98473.72
2023-04-10T20:00:04.681Z,98496.56
2023-04-10T20:03:00.145Z,98461.22
2023-04-10T20:05:45.971Z,98506.13
2023-04-10T20:08:31.875Z,98492.16
2023-04-10T20:11:17.432Z,98504.72
2023-04-10T20:14:02.937Z,98505.09
2023-04-10T20:16:48.530Z,98353.22
2023-04-10T20:19:34.611Z,98516.91
2023-04-10T20:22:20.231Z,98498.50
2023-04-10T20:25:06.458Z,98504.75
2023-04-10T20:27:51.730Z,98480.47
2023-04-10T20:30:40.420Z,98484.88
2023-04-10T20:33:25.762Z,98467.22
2023-04-10T20:36:11.636Z,98473.66
2023-04-10T20:38:57.368Z,98477.53
2023-04-10T20:41:43.155Z,98447.72
2023-04-10T20:44:29.211Z,98507.88
2023-04-10T20:47:15.393Z,98290.84
2023-04-10T20:50:00.721Z,98492.59
2023-04-10T20:52:46.328Z,98433.31
2023-04-10T20:55:32.193Z,98481.94
2023-04-10T20:58:20.784Z,98487.25
2023-04-10T21:01:08.908Z,98479.34
2023-04-10T21:03:56.170Z,98503.66
2023-04-10T21:06:41.773Z,98476.81
2023-04-10T21:09:27.842Z,98382.94
2023-04-10T21:12:13.636Z,98296.63
2023-04-10T21:14:59.255Z,98297.84
2023-04-10T21:17:44.900Z,98447.28
2023-04-10T21:20:31.206Z,98474.16
2023-04-10T21:23:17.095Z,98296.28
2023-04-10T21:26:03.570Z,98283.38
2023-04-10T21:28:49.823Z,98487.03
2023-04-10T21:31:45.000Z,98458.38
2023-04-10T21:34:39.498Z,98455.03
2023-04-10T21:37:25.138Z,98473.44
2023-04-10T21:40:13.755Z,98286.06
2023-04-10T21:43:00.710Z,98476.56
2023-04-10T21:45:49.338Z,98457.97
2023-04-10T21:48:36.540Z,98324.72
2023-04-10T21:51:26.869Z,98341.66
2023-04-10T21:54:13.679Z,98440.28
2023-04-10T21:57:01.467Z,98458.38
2023-04-10T21:59:46.899Z,98290.84
2023-04-10T22:02:32.697Z,98455.78
2023-04-10T22:05:18.662Z,98302.47
2023-04-10T22:08:03.891Z,98292.28
2023-04-10T22:10:50.944Z,98276.47
2023-04-10T22:13:36.534Z,98460.72
2023-04-10T22:16:22.092Z,98457.44
2023-04-10T22:19:07.654Z,98455.78
2023-04-10T22:21:53.449Z,98419.00
2023-04-10T22:24:39.547Z,98337.28
2023-04-10T22:27:27.553Z,98413.63
2023-04-10T22:30:15.903Z,98442.09
2023-04-10T22:33:01.808Z,98440.59
2023-04-10T22:35:47.588Z,98437.84
2023-04-10T22:38:32.957Z,98433.59
2023-04-10T22:41:19.137Z,98336.59
2023-04-10T22:44:05.065Z,98386.44
2023-04-10T22:46:50.468Z,98270.78
2023-04-10T22:49:35.932Z,98431.88
2023-04-10T22:52:21.329Z,98449.31
2023-04-10T22:55:07.737Z,98459.44
2023-04-10T22:57:53.254Z,98250.16
2023-04-10T23:00:38.822Z,98420.34
2023-04-10T23:03:24.429Z,98428.09
2023-04-10T23:06:09.950Z,98286.53
2023-04-10T23:08:56.480Z,98264.91
2023-04-10T23:11:42.082Z,98270.72
2023-04-10T23:14:27.623Z,98412.34
2023-04-10T23:17:13.090Z,98410.97
2023-04-10T23:19:59.222Z,98400.44
2023-04-10T23:22:44.649Z,98396.59
2023-04-10T23:25:30.111Z,98214.22
2023-04-10T23:28:15.763Z,98392.97
2023-04-10T23:31:01.455Z,98384.03
2023-04-10T23:33:46.891Z,98392.84
2023-04-10T23:36:32.362Z,98389.75
2023-04-10T23:39:17.842Z,98377.41
2023-04-10T23:42:03.198Z,98371.19
2023-04-10T23:44:48.657Z,98360.16
2023-04-10T23:47:34.020Z,98206.09
2023-04-10T23:50:19.313Z,98402.84
2023-04-10T23:53:08.461Z,98362.38
2023-04-10T23:55:54.112Z,98237.69
2023-04-10T23:58:39.854Z,98345.44
